Creek Data

    Home     View Charts     View Raw Data     Messages

ID Distance Battery Voltage Battery Current Internal Temp Internal Humidity External Temp Solar Input rssi snr Time Stamp Record
32966 13.9 3.79 -5 43 38 48 0 -77 8 02/20/2025 10:45 PM 14644
32965 13.9 3.79 -5 43 38 45 0 -77 8 02/20/2025 10:30 PM 14643
32964 13.9 3.85 -5 44 38 45 0 -78 8 02/20/2025 10:15 PM 14642
32963 13.9 3.79 -5 44 39 46 0 -77 8 02/20/2025 10:00 PM 14641
32962 13.8 3.85 -5 44 39 46 0 -77 9 02/20/2025 09:45 PM 14640
32961 13.8 3.80 -5 44 40 45 0 -77 8 02/20/2025 09:30 PM 14639
32960 13.9 3.80 -5 46 39 46 0 -77 8 02/20/2025 09:15 PM 14638
32959 13.9 3.85 -5 47 39 49 0 -76 8 02/20/2025 09:00 PM 14637
32958 13.9 3.80 -5 49 39 51 0 -76 8 02/20/2025 08:45 PM 14636
32957 13.9 3.85 -5 50 39 52 0 -76 8 02/20/2025 08:30 PM 14635
32956 13.9 3.80 -5 51 38 53 0 -76 8 02/20/2025 08:15 PM 14634
32955 13.8 3.85 -5 51 38 55 0 -75 7 02/20/2025 08:00 PM 14633
32954 13.9 3.80 -5 51 39 54 0.1 -76 8 02/20/2025 07:45 PM 14632
32953 13.9 3.80 -5 52 39 54 0 -75 8 02/20/2025 07:30 PM 14631
32952 13.9 3.85 -5 52 39 56 0 -75 7 02/20/2025 07:15 PM 14630
32951 13.8 3.80 -5 52 40 57 0 -74 8 02/20/2025 07:00 PM 14629
32950 13.8 3.80 -5 52 41 57 0 -75 7 02/20/2025 06:45 PM 14628
32949 13.8 3.85 -5 52 42 56 0.1 -74 9 02/20/2025 06:30 PM 14627
32948 13.8 3.80 -5 54 42 55 0 -74 8 02/20/2025 06:15 PM 14626
32947 13.8 3.80 -9 57 41 56 1.1 -74 8 02/20/2025 06:00 PM 14625
32946 13.9 3.87 0 60 40 58 4.5 -74 8 02/20/2025 05:45 PM 14624
32945 13.9 3.91 8 61 40 60 4.5 -74 7 02/20/2025 05:30 PM 14623
32944 13.9 3.84 -13 61 42 60 4.5 -74 8 02/20/2025 05:15 PM 14622
32943 13.9 3.91 6 63 41 61 4.5 -73 8 02/20/2025 05:00 PM 14621
32942 13.9 3.88 0 66 40 62 5.1 -73 7 02/20/2025 04:45 PM 14620